sensor_id;sensor_type;location;lat;lon;timestamp;temperature;humidity
31783;DHT22;18351;47.560;9.708;2023-02-12T00:01:51;-0.20;99.90
31783;DHT22;18351;47.560;9.708;2023-02-12T00:04:17;-0.20;99.90
31783;DHT22;18351;47.560;9.708;2023-02-12T00:06:43;-0.30;99.90
31783;DHT22;18351;47.560;9.708;2023-02-12T00:09:08;-0.30;99.90
31783;DHT22;18351;47.560;9.708;2023-02-12T00:11:34;-0.20;99.90
31783;DHT22;18351;47.560;9.708;2023-02-12T00:14:01;-0.30;99.90
31783;DHT22;18351;47.560;9.708;2023-02-12T00:16:27;-0.30;99.90
31783;DHT22;18351;47.560;9.708;2023-02-12T00:18:55;-0.40;99.90
31783;DHT22;18351;47.560;9.708;2023-02-12T00:21:21;-0.40;99.90
31783;DHT22;18351;47.560;9.708;2023-02-12T00:23:48;-0.40;99.90
31783;DHT22;18351;47.560;9.708;2023-02-12T00:26:16;-0.50;99.90
31783;DHT22;18351;47.560;9.708;2023-02-12T00:28:41;-0.50;99.90
31783;DHT22;18351;47.560;9.708;2023-02-12T00:31:13;-0.50;99.90
31783;DHT22;18351;47.560;9.708;2023-02-12T00:33:39;-0.50;99.90
31783;DHT22;18351;47.560;9.708;2023-02-12T00:36:06;-0.60;99.90
31783;DHT22;18351;47.560;9.708;2023-02-12T00:38:32;-0.60;99.90
31783;DHT22;18351;47.560;9.708;2023-02-12T00:40:58;-0.60;99.90
31783;DHT22;18351;47.560;9.708;2023-02-12T00:43:24;-0.70;99.90
31783;DHT22;18351;47.560;9.708;2023-02-12T00:45:49;-0.70;99.90
31783;DHT22;18351;47.560;9.708;2023-02-12T00:48:15;-0.80;99.90
31783;DHT22;18351;47.560;9.708;2023-02-12T00:50:44;-0.70;99.90
31783;DHT22;18351;47.560;9.708;2023-02-12T00:53:10;-0.70;99.90
31783;DHT22;18351;47.560;9.708;2023-02-12T00:55:36;-0.70;99.90
31783;DHT22;18351;47.560;9.708;2023-02-12T00:58:01;-0.60;99.90
31783;DHT22;18351;47.560;9.708;2023-02-12T01:00:27;-0.60;99.90
31783;DHT22;18351;47.560;9.708;2023-02-12T01:02:52;-0.60;99.90
31783;DHT22;18351;47.560;9.708;2023-02-12T01:05:18;-0.60;99.90
31783;DHT22;18351;47.560;9.708;2023-02-12T01:07:51;-0.60;99.90
31783;DHT22;18351;47.560;9.708;2023-02-12T01:10:18;-0.60;99.90
31783;DHT22;18351;47.560;9.708;2023-02-12T01:12:45;-0.60;99.90
31783;DHT22;18351;47.560;9.708;2023-02-12T01:15:11;-0.60;99.90
31783;DHT22;18351;47.560;9.708;2023-02-12T01:17:36;-0.60;99.90
31783;DHT22;18351;47.560;9.708;2023-02-12T01:20:04;-0.60;99.90
31783;DHT22;18351;47.560;9.708;2023-02-12T01:22:33;-0.60;99.90
31783;DHT22;18351;47.560;9.708;2023-02-12T01:24:59;-0.60;99.90
31783;DHT22;18351;47.560;9.708;2023-02-12T01:27:25;-0.60;99.90
31783;DHT22;18351;47.560;9.708;2023-02-12T01:29:50;-0.70;99.90
31783;DHT22;18351;47.560;9.708;2023-02-12T01:32:16;-0.80;99.90
31783;DHT22;18351;47.560;9.708;2023-02-12T01:34:41;-0.80;99.90
31783;DHT22;18351;47.560;9.708;2023-02-12T01:37:07;-0.90;99.90
31783;DHT22;18351;47.560;9.708;2023-02-12T01:39:33;-0.90;99.90
31783;DHT22;18351;47.560;9.708;2023-02-12T01:42:00;-1.00;99.90
31783;DHT22;18351;47.560;9.708;2023-02-12T01:44:28;-1.00;99.90
31783;DHT22;18351;47.560;9.708;2023-02-12T01:47:00;-1.00;99.90
31783;DHT22;18351;47.560;9.708;2023-02-12T01:49:37;-1.00;99.90
31783;DHT22;18351;47.560;9.708;2023-02-12T01:52:15;-0.90;99.90
31783;DHT22;18351;47.560;9.708;2023-02-12T01:54:42;-0.90;99.90
31783;DHT22;18351;47.560;9.708;2023-02-12T01:57:09;-0.90;99.90
31783;DHT22;18351;47.560;9.708;2023-02-12T01:59:37;-0.80;99.90
31783;DHT22;18351;47.560;9.708;2023-02-12T02:02:04;-0.90;99.90
31783;DHT22;18351;47.560;9.708;2023-02-12T02:04:41;-0.90;99.90
31783;DHT22;18351;47.560;9.708;2023-02-12T02:07:08;-0.90;99.90
31783;DHT22;18351;47.560;9.708;2023-02-12T02:09:37;-0.90;99.90
31783;DHT22;18351;47.560;9.708;2023-02-12T02:12:04;-1.00;99.90
31783;DHT22;18351;47.560;9.708;2023-02-12T02:14:50;-1.00;99.90
31783;DHT22;18351;47.560;9.708;2023-02-12T02:20:38;-1.00;99.90
31783;DHT22;18351;47.560;9.708;2023-02-12T02:23:23;-1.00;99.90
31783;DHT22;18351;47.560;9.708;2023-02-12T02:28:58;-1.00;99.90
31783;DHT22;18351;47.560;9.708;2023-02-12T02:31:43;-1.00;99.90
31783;DHT22;18351;47.560;9.708;2023-02-12T02:34:38;-1.00;99.90
31783;DHT22;18351;47.560;9.708;2023-02-12T02:44:58;-1.20;99.90
31783;DHT22;18351;47.560;9.708;2023-02-12T02:47:33;-1.10;99.90
31783;DHT22;18351;47.560;9.708;2023-02-12T02:50:07;-1.20;99.90
31783;DHT22;18351;47.560;9.708;2023-02-12T02:52:51;-1.20;99.90
31783;DHT22;18351;47.560;9.708;2023-02-12T02:55:20;-1.10;99.90
31783;DHT22;18351;47.560;9.708;2023-02-12T02:57:54;-1.20;99.90
31783;DHT22;18351;47.560;9.708;2023-02-12T03:00:47;-1.20;99.90
31783;DHT22;18351;47.560;9.708;2023-02-12T03:05:44;-1.20;99.90
31783;DHT22;18351;47.560;9.708;2023-02-12T03:08:16;-1.20;99.90
31783;DHT22;18351;47.560;9.708;2023-02-12T03:10:50;-1.30;99.90
31783;DHT22;18351;47.560;9.708;2023-02-12T03:13:31;-1.30;99.90
31783;DHT22;18351;47.560;9.708;2023-02-12T03:16:19;-1.40;99.90
31783;DHT22;18351;47.560;9.708;2023-02-12T03:19:10;-1.40;99.90
31783;DHT22;18351;47.560;9.708;2023-02-12T03:21:47;-1.40;99.90
31783;DHT22;18351;47.560;9.708;2023-02-12T03:27:09;-1.40;99.90
31783;DHT22;18351;47.560;9.708;2023-02-12T03:29:37;-1.40;99.90
31783;DHT22;18351;47.560;9.708;2023-02-12T03:34:52;-1.50;99.90
31783;DHT22;18351;47.560;9.708;2023-02-12T03:40:04;-1.50;99.90
31783;DHT22;18351;47.560;9.708;2023-02-12T03:42:43;-1.50;99.90
31783;DHT22;18351;47.560;9.708;2023-02-12T03:48:18;-1.60;99.90
31783;DHT22;18351;47.560;9.708;2023-02-12T03:53:25;-1.60;99.90
31783;DHT22;18351;47.560;9.708;2023-02-12T03:56:04;-1.60;99.90
31783;DHT22;18351;47.560;9.708;2023-02-12T03:58:33;-1.60;99.90
31783;DHT22;18351;47.560;9.708;2023-02-12T04:01:00;-1.60;99.90
31783;DHT22;18351;47.560;9.708;2023-02-12T04:03:27;-1.70;99.90
31783;DHT22;18351;47.560;9.708;2023-02-12T04:05:53;-1.70;99.90
31783;DHT22;18351;47.560;9.708;2023-02-12T04:08:19;-1.70;99.90
31783;DHT22;18351;47.560;9.708;2023-02-12T04:13:52;-1.70;99.90
31783;DHT22;18351;47.560;9.708;2023-02-12T04:16:31;-1.70;99.90
31783;DHT22;18351;47.560;9.708;2023-02-12T04:18:57;-1.70;99.90
31783;DHT22;18351;47.560;9.708;2023-02-12T04:21:43;-1.80;99.90
31783;DHT22;18351;47.560;9.708;2023-02-12T04:24:27;-1.80;99.90
31783;DHT22;18351;47.560;9.708;2023-02-12T04:32:14;-1.80;99.90
31783;DHT22;18351;47.560;9.708;2023-02-12T04:37:48;-1.80;99.90
31783;DHT22;18351;47.560;9.708;2023-02-12T04:40:17;-1.70;99.90
31783;DHT22;18351;47.560;9.708;2023-02-12T04:42:44;-1.80;99.90
31783;DHT22;18351;47.560;9.708;2023-02-12T04:45:12;-1.80;99.90
31783;DHT22;18351;47.560;9.708;2023-02-12T04:47:38;-1.70;99.90
31783;DHT22;18351;47.560;9.708;2023-02-12T04:50:04;-1.70;99.90
31783;DHT22;18351;47.560;9.708;2023-02-12T04:52:30;-1.70;99.90
31783;DHT22;18351;47.560;9.708;2023-02-12T04:54:56;-1.80;99.90
31783;DHT22;18351;47.560;9.708;2023-02-12T04:57:21;-1.80;99.90
31783;DHT22;18351;47.560;9.708;2023-02-12T04:59:47;-1.70;99.90
31783;DHT22;18351;47.560;9.708;2023-02-12T05:02:12;-1.80;99.90
31783;DHT22;18351;47.560;9.708;2023-02-12T05:04:38;-1.80;99.90
31783;DHT22;18351;47.560;9.708;2023-02-12T05:07:03;-1.80;99.90
31783;DHT22;18351;47.560;9.708;2023-02-12T05:09:29;-1.80;99.90
31783;DHT22;18351;47.560;9.708;2023-02-12T05:11:54;-1.80;99.90
31783;DHT22;18351;47.560;9.708;2023-02-12T05:14:23;-1.80;99.90
31783;DHT22;18351;47.560;9.708;2023-02-12T05:16:49;-1.80;99.90
31783;DHT22;18351;47.560;9.708;2023-02-12T05:19:14;-1.80;99.90
31783;DHT22;18351;47.560;9.708;2023-02-12T05:21:40;-1.80;99.90
31783;DHT22;18351;47.560;9.708;2023-02-12T05:24:06;-1.80;99.90
31783;DHT22;18351;47.560;9.708;2023-02-12T05:26:31;-1.70;99.90
31783;DHT22;18351;47.560;9.708;2023-02-12T05:28:57;-1.70;99.90
31783;DHT22;18351;47.560;9.708;2023-02-12T05:31:23;-1.70;99.90
31783;DHT22;18351;47.560;9.708;2023-02-12T05:33:49;-1.70;99.90
31783;DHT22;18351;47.560;9.708;2023-02-12T05:36:20;-1.70;99.90
31783;DHT22;18351;47.560;9.708;2023-02-12T05:38:47;-1.80;99.90
31783;DHT22;18351;47.560;9.708;2023-02-12T05:41:21;-1.80;99.90
31783;DHT22;18351;47.560;9.708;2023-02-12T05:43:48;-1.80;99.90
31783;DHT22;18351;47.560;9.708;2023-02-12T05:46:14;-1.80;99.90
31783;DHT22;18351;47.560;9.708;2023-02-12T05:48:39;-1.80;99.90
31783;DHT22;18351;47.560;9.708;2023-02-12T05:51:10;-1.80;99.90
31783;DHT22;18351;47.560;9.708;2023-02-12T05:53:37;-1.80;99.90
31783;DHT22;18351;47.560;9.708;2023-02-12T05:56:13;-1.70;99.90
31783;DHT22;18351;47.560;9.708;2023-02-12T05:58:41;-1.80;99.90
31783;DHT22;18351;47.560;9.708;2023-02-12T06:01:13;-1.80;99.90
31783;DHT22;18351;47.560;9.708;2023-02-12T06:03:39;-1.90;99.90
31783;DHT22;18351;47.560;9.708;2023-02-12T06:06:05;-1.90;99.90
31783;DHT22;18351;47.560;9.708;2023-02-12T06:08:31;-1.90;99.90
31783;DHT22;18351;47.560;9.708;2023-02-12T06:11:01;-1.90;99.90
31783;DHT22;18351;47.560;9.708;2023-02-12T06:13:28;-2.00;99.90
31783;DHT22;18351;47.560;9.708;2023-02-12T06:15:54;-2.10;99.90
31783;DHT22;18351;47.560;9.708;2023-02-12T06:18:19;-2.10;99.90
31783;DHT22;18351;47.560;9.708;2023-02-12T06:20:45;-2.10;99.90
31783;DHT22;18351;47.560;9.708;2023-02-12T06:23:10;-2.10;99.90
31783;DHT22;18351;47.560;9.708;2023-02-12T06:25:36;-2.10;99.90
31783;DHT22;18351;47.560;9.708;2023-02-12T06:28:01;-2.10;99.90
31783;DHT22;18351;47.560;9.708;2023-02-12T06:30:27;-2.20;99.90
31783;DHT22;18351;47.560;9.708;2023-02-12T06:32:52;-2.20;99.90
31783;DHT22;18351;47.560;9.708;2023-02-12T06:35:18;-2.20;99.90
31783;DHT22;18351;47.560;9.708;2023-02-12T06:37:43;-2.20;99.90
31783;DHT22;18351;47.560;9.708;2023-02-12T06:40:09;-2.20;99.90
31783;DHT22;18351;47.560;9.708;2023-02-12T06:42:35;-2.10;99.90
31783;DHT22;18351;47.560;9.708;2023-02-12T06:45:00;-2.10;99.90
31783;DHT22;18351;47.560;9.708;2023-02-12T06:47:27;-2.10;99.90
31783;DHT22;18351;47.560;9.708;2023-02-12T06:49:53;-2.10;99.90
31783;DHT22;18351;47.560;9.708;2023-02-12T06:52:18;-2.10;99.90
31783;DHT22;18351;47.560;9.708;2023-02-12T06:54:45;-2.10;99.90
31783;DHT22;18351;47.560;9.708;2023-02-12T06:57:11;-2.10;99.90
31783;DHT22;18351;47.560;9.708;2023-02-12T06:59:36;-2.10;99.90
31783;DHT22;18351;47.560;9.708;2023-02-12T07:02:02;-2.10;99.90
31783;DHT22;18351;47.560;9.708;2023-02-12T07:04:27;-2.00;99.90
31783;DHT22;18351;47.560;9.708;2023-02-12T07:06:53;-2.00;99.90
31783;DHT22;18351;47.560;9.708;2023-02-12T07:09:18;-2.00;99.90
31783;DHT22;18351;47.560;9.708;2023-02-12T07:11:44;-2.00;99.90
31783;DHT22;18351;47.560;9.708;2023-02-12T07:14:14;-1.90;99.90
31783;DHT22;18351;47.560;9.708;2023-02-12T07:16:40;-1.90;99.90
31783;DHT22;18351;47.560;9.708;2023-02-12T07:19:06;-1.80;99.90
31783;DHT22;18351;47.560;9.708;2023-02-12T07:21:31;-1.80;99.90
31783;DHT22;18351;47.560;9.708;2023-02-12T07:23:57;-1.70;99.90
31783;DHT22;18351;47.560;9.708;2023-02-12T07:26:23;-1.70;99.90
31783;DHT22;18351;47.560;9.708;2023-02-12T07:28:49;-1.60;99.90
31783;DHT22;18351;47.560;9.708;2023-02-12T07:31:18;-1.60;99.90
31783;DHT22;18351;47.560;9.708;2023-02-12T07:33:44;-1.50;99.90
31783;DHT22;18351;47.560;9.708;2023-02-12T07:36:15;-1.40;99.90
31783;DHT22;18351;47.560;9.708;2023-02-12T07:38:41;-1.40;99.90
31783;DHT22;18351;47.560;9.708;2023-02-12T07:41:17;-1.40;99.90
31783;DHT22;18351;47.560;9.708;2023-02-12T07:43:46;-1.30;99.90
31783;DHT22;18351;47.560;9.708;2023-02-12T07:46:19;-1.20;99.90
31783;DHT22;18351;47.560;9.708;2023-02-12T07:48:46;-1.00;99.90
31783;DHT22;18351;47.560;9.708;2023-02-12T07:51:14;-0.90;99.90
31783;DHT22;18351;47.560;9.708;2023-02-12T07:53:41;-0.90;99.90
31783;DHT22;18351;47.560;9.708;2023-02-12T07:56:12;-0.80;99.90
31783;DHT22;18351;47.560;9.708;2023-02-12T07:58:39;-0.70;99.90
31783;DHT22;18351;47.560;9.708;2023-02-12T08:01:17;-0.60;99.90
31783;DHT22;18351;47.560;9.708;2023-02-12T08:03:44;-0.40;99.90
31783;DHT22;18351;47.560;9.708;2023-02-12T08:06:12;-0.40;99.90
31783;DHT22;18351;47.560;9.708;2023-02-12T08:08:38;-0.30;99.90
31783;DHT22;18351;47.560;9.708;2023-02-12T08:11:05;-0.20;99.90
31783;DHT22;18351;47.560;9.708;2023-02-12T08:13:31;-0.10;99.90
31783;DHT22;18351;47.560;9.708;2023-02-12T08:16:06;0.00;99.90
31783;DHT22;18351;47.560;9.708;2023-02-12T08:18:32;0.10;99.90
31783;DHT22;18351;47.560;9.708;2023-02-12T08:21:05;0.20;99.90
31783;DHT22;18351;47.560;9.708;2023-02-12T08:23:31;0.30;99.90
31783;DHT22;18351;47.560;9.708;2023-02-12T08:26:11;0.40;99.90
31783;DHT22;18351;47.560;9.708;2023-02-12T08:28:40;0.50;99.90
31783;DHT22;18351;47.560;9.708;2023-02-12T08:31:09;0.60;99.90
31783;DHT22;18351;47.560;9.708;2023-02-12T08:33:35;0.70;99.90
31783;DHT22;18351;47.560;9.708;2023-02-12T08:36:09;0.80;99.90
31783;DHT22;18351;47.560;9.708;2023-02-12T08:38:35;0.90;99.90
31783;DHT22;18351;47.560;9.708;2023-02-12T08:41:04;1.00;99.90
31783;DHT22;18351;47.560;9.708;2023-02-12T08:43:30;1.10;99.90
31783;DHT22;18351;47.560;9.708;2023-02-12T08:46:04;1.20;99.90
31783;DHT22;18351;47.560;9.708;2023-02-12T08:48:30;1.40;99.90
31783;DHT22;18351;47.560;9.708;2023-02-12T08:51:06;1.50;99.90
31783;DHT22;18351;47.560;9.708;2023-02-12T08:53:32;1.60;99.90
31783;DHT22;18351;47.560;9.708;2023-02-12T08:55:57;1.70;99.90
31783;DHT22;18351;47.560;9.708;2023-02-12T08:58:23;1.70;99.90
31783;DHT22;18351;47.560;9.708;2023-02-12T09:00:48;1.80;99.90
31783;DHT22;18351;47.560;9.708;2023-02-12T09:03:14;1.80;99.90
31783;DHT22;18351;47.560;9.708;2023-02-12T09:05:40;2.00;99.90
31783;DHT22;18351;47.560;9.708;2023-02-12T09:08:06;2.10;99.90
31783;DHT22;18351;47.560;9.708;2023-02-12T09:10:33;2.20;99.90
31783;DHT22;18351;47.560;9.708;2023-02-12T09:12:58;2.30;99.90
31783;DHT22;18351;47.560;9.708;2023-02-12T09:15:24;2.40;99.90
31783;DHT22;18351;47.560;9.708;2023-02-12T09:17:50;2.50;99.90
31783;DHT22;18351;47.560;9.708;2023-02-12T09:20:15;2.70;99.90
31783;DHT22;18351;47.560;9.708;2023-02-12T09:22:41;2.80;99.90
31783;DHT22;18351;47.560;9.708;2023-02-12T09:25:06;2.80;99.90
31783;DHT22;18351;47.560;9.708;2023-02-12T09:27:32;2.90;99.90
31783;DHT22;18351;47.560;9.708;2023-02-12T09:29:57;3.00;99.90
31783;DHT22;18351;47.560;9.708;2023-02-12T09:32:23;3.10;99.90
31783;DHT22;18351;47.560;9.708;2023-02-12T09:34:49;3.30;99.90
31783;DHT22;18351;47.560;9.708;2023-02-12T09:37:14;3.30;99.90
31783;DHT22;18351;47.560;9.708;2023-02-12T09:39:40;3.30;99.90
31783;DHT22;18351;47.560;9.708;2023-02-12T09:45:12;3.50;99.90
31783;DHT22;18351;47.560;9.708;2023-02-12T09:47:45;3.70;99.90
31783;DHT22;18351;47.560;9.708;2023-02-12T09:50:24;3.80;99.90
31783;DHT22;18351;47.560;9.708;2023-02-12T09:52:52;3.90;99.90
31783;DHT22;18351;47.560;9.708;2023-02-12T09:55:19;4.10;99.90
31783;DHT22;18351;47.560;9.708;2023-02-12T09:57:47;4.20;99.90
31783;DHT22;18351;47.560;9.708;2023-02-12T10:00:31;4.40;99.90
31783;DHT22;18351;47.560;9.708;2023-02-12T10:03:01;4.50;99.90
31783;DHT22;18351;47.560;9.708;2023-02-12T10:05:34;4.70;99.90
31783;DHT22;18351;47.560;9.708;2023-02-12T10:08:13;4.70;99.90
31783;DHT22;18351;47.560;9.708;2023-02-12T10:14:01;4.80;99.90
31783;DHT22;18351;47.560;9.708;2023-02-12T10:16:56;4.90;99.90
31783;DHT22;18351;47.560;9.708;2023-02-12T10:20:03;5.00;99.90
31783;DHT22;18351;47.560;9.708;2023-02-12T10:27:55;5.40;99.90
31783;DHT22;18351;47.560;9.708;2023-02-12T10:30:26;5.50;99.90
31783;DHT22;18351;47.560;9.708;2023-02-12T10:33:06;5.50;99.90
31783;DHT22;18351;47.560;9.708;2023-02-12T10:36:02;5.60;99.90
31783;DHT22;18351;47.560;9.708;2023-02-12T10:38:29;5.60;99.90
31783;DHT22;18351;47.560;9.708;2023-02-12T10:40:56;5.70;99.90
31783;DHT22;18351;47.560;9.708;2023-02-12T10:43:26;5.80;99.90
31783;DHT22;18351;47.560;9.708;2023-02-12T10:45:52;5.80;99.90
31783;DHT22;18351;47.560;9.708;2023-02-12T10:48:23;5.90;99.90
31783;DHT22;18351;47.560;9.708;2023-02-12T10:56:14;6.10;99.90
31783;DHT22;18351;47.560;9.708;2023-02-12T10:58:53;6.20;99.90
31783;DHT22;18351;47.560;9.708;2023-02-12T11:01:28;6.30;99.90
31783;DHT22;18351;47.560;9.708;2023-02-12T11:03:56;6.30;99.90
31783;DHT22;18351;47.560;9.708;2023-02-12T11:06:28;6.30;99.90
31783;DHT22;18351;47.560;9.708;2023-02-12T11:08:55;6.40;99.90
31783;DHT22;18351;47.560;9.708;2023-02-12T11:11:29;6.40;99.90
31783;DHT22;18351;47.560;9.708;2023-02-12T11:14:04;6.40;99.90
31783;DHT22;18351;47.560;9.708;2023-02-12T11:16:35;6.40;99.90
31783;DHT22;18351;47.560;9.708;2023-02-12T11:19:07;6.50;99.80
31783;DHT22;18351;47.560;9.708;2023-02-12T11:21:33;6.60;99.50
31783;DHT22;18351;47.560;9.708;2023-02-12T11:24:31;6.60;98.90
31783;DHT22;18351;47.560;9.708;2023-02-12T11:27:12;6.70;99.20
31783;DHT22;18351;47.560;9.708;2023-02-12T11:29:38;6.80;98.80
31783;DHT22;18351;47.560;9.708;2023-02-12T11:32:06;6.80;98.40
31783;DHT22;18351;47.560;9.708;2023-02-12T11:34:36;6.80;98.80
31783;DHT22;18351;47.560;9.708;2023-02-12T11:37:02;6.90;98.50
31783;DHT22;18351;47.560;9.708;2023-02-12T11:39:32;6.90;98.40
31783;DHT22;18351;47.560;9.708;2023-02-12T11:44:34;7.00;98.10
31783;DHT22;18351;47.560;9.708;2023-02-12T11:47:03;7.00;98.10
31783;DHT22;18351;47.560;9.708;2023-02-12T11:49:38;7.00;98.00
31783;DHT22;18351;47.560;9.708;2023-02-12T11:52:05;7.00;98.10
31783;DHT22;18351;47.560;9.708;2023-02-12T11:54:41;7.00;98.40
31783;DHT22;18351;47.560;9.708;2023-02-12T11:57:43;7.10;98.10
31783;DHT22;18351;47.560;9.708;2023-02-12T12:00:17;7.20;98.10
31783;DHT22;18351;47.560;9.708;2023-02-12T12:03:11;7.20;98.30
31783;DHT22;18351;47.560;9.708;2023-02-12T12:05:44;7.30;97.70
31783;DHT22;18351;47.560;9.708;2023-02-12T12:08:18;7.40;97.70
31783;DHT22;18351;47.560;9.708;2023-02-12T12:11:11;7.50;97.30
31783;DHT22;18351;47.560;9.708;2023-02-12T12:13:47;7.70;97.00
31783;DHT22;18351;47.560;9.708;2023-02-12T12:16:21;7.70;96.80
31783;DHT22;18351;47.560;9.708;2023-02-12T12:22:35;7.80;96.50
31783;DHT22;18351;47.560;9.708;2023-02-12T12:27:46;7.90;96.70
31783;DHT22;18351;47.560;9.708;2023-02-12T12:33:09;8.00;95.90
31783;DHT22;18351;47.560;9.708;2023-02-12T12:38:49;8.00;95.90
31783;DHT22;18351;47.560;9.708;2023-02-12T12:48:10;8.10;96.00
31783;DHT22;18351;47.560;9.708;2023-02-12T12:51:09;8.10;96.30
31783;DHT22;18351;47.560;9.708;2023-02-12T13:13:44;8.80;91.80
31783;DHT22;18351;47.560;9.708;2023-02-12T13:16:17;8.80;91.90
31783;DHT22;18351;47.560;9.708;2023-02-12T13:24:37;8.90;91.60
31783;DHT22;18351;47.560;9.708;2023-02-12T13:27:13;9.00;90.80
31783;DHT22;18351;47.560;9.708;2023-02-12T13:29:44;9.00;90.90
31783;DHT22;18351;47.560;9.708;2023-02-12T13:32:23;9.00;90.80
31783;DHT22;18351;47.560;9.708;2023-02-12T13:34:52;9.00;91.20
31783;DHT22;18351;47.560;9.708;2023-02-12T13:37:23;9.00;91.50
31783;DHT22;18351;47.560;9.708;2023-02-12T13:39:50;8.90;91.70
31783;DHT22;18351;47.560;9.708;2023-02-12T13:42:42;9.00;91.70
31783;DHT22;18351;47.560;9.708;2023-02-12T13:50:35;9.40;88.90
31783;DHT22;18351;47.560;9.708;2023-02-12T13:53:14;9.20;89.60
31783;DHT22;18351;47.560;9.708;2023-02-12T13:56:20;9.20;90.10
31783;DHT22;18351;47.560;9.708;2023-02-12T13:58:52;9.30;90.10
31783;DHT22;18351;47.560;9.708;2023-02-12T14:01:42;9.30;88.90
31783;DHT22;18351;47.560;9.708;2023-02-12T14:07:04;9.30;89.00
31783;DHT22;18351;47.560;9.708;2023-02-12T14:12:04;9.40;88.60
31783;DHT22;18351;47.560;9.708;2023-02-12T14:14:40;9.50;87.50
31783;DHT22;18351;47.560;9.708;2023-02-12T14:27:57;9.70;84.30
31783;DHT22;18351;47.560;9.708;2023-02-12T14:30:36;9.70;84.10
31783;DHT22;18351;47.560;9.708;2023-02-12T14:35:36;9.50;87.20
31783;DHT22;18351;47.560;9.708;2023-02-12T14:40:42;9.40;91.20
31783;DHT22;18351;47.560;9.708;2023-02-12T14:45:49;9.30;92.60
31783;DHT22;18351;47.560;9.708;2023-02-12T14:48:38;9.30;93.30
31783;DHT22;18351;47.560;9.708;2023-02-12T14:51:05;9.20;93.80
31783;DHT22;18351;47.560;9.708;2023-02-12T14:53:34;9.20;94.50
31783;DHT22;18351;47.560;9.708;2023-02-12T14:56:02;9.20;94.90
31783;DHT22;18351;47.560;9.708;2023-02-12T14:58:31;9.20;95.30
31783;DHT22;18351;47.560;9.708;2023-02-12T15:00:59;9.20;95.10
31783;DHT22;18351;47.560;9.708;2023-02-12T15:03:43;9.20;95.40
31783;DHT22;18351;47.560;9.708;2023-02-12T15:06:22;9.10;95.20
31783;DHT22;18351;47.560;9.708;2023-02-12T15:09:06;9.10;95.70
31783;DHT22;18351;47.560;9.708;2023-02-12T15:11:46;9.10;96.10
31783;DHT22;18351;47.560;9.708;2023-02-12T15:14:18;9.00;96.60
31783;DHT22;18351;47.560;9.708;2023-02-12T15:16:58;9.00;97.00
31783;DHT22;18351;47.560;9.708;2023-02-12T15:19:39;8.90;97.40
31783;DHT22;18351;47.560;9.708;2023-02-12T15:22:21;8.90;97.20
31783;DHT22;18351;47.560;9.708;2023-02-12T15:24:47;8.80;97.40
31783;DHT22;18351;47.560;9.708;2023-02-12T15:27:14;8.70;97.50
31783;DHT22;18351;47.560;9.708;2023-02-12T15:29:48;8.70;97.60
31783;DHT22;18351;47.560;9.708;2023-02-12T15:32:27;8.60;97.80
31783;DHT22;18351;47.560;9.708;2023-02-12T15:34:54;8.50;98.30
31783;DHT22;18351;47.560;9.708;2023-02-12T15:37:30;8.50;98.60
31783;DHT22;18351;47.560;9.708;2023-02-12T15:39:59;8.50;98.80
31783;DHT22;18351;47.560;9.708;2023-02-12T15:47:44;8.40;99.70
31783;DHT22;18351;47.560;9.708;2023-02-12T15:50:16;8.40;99.70
31783;DHT22;18351;47.560;9.708;2023-02-12T15:52:43;8.40;99.90
31783;DHT22;18351;47.560;9.708;2023-02-12T15:55:19;8.40;99.90
31783;DHT22;18351;47.560;9.708;2023-02-12T15:57:49;8.40;99.90
31783;DHT22;18351;47.560;9.708;2023-02-12T16:00:28;8.30;99.90
31783;DHT22;18351;47.560;9.708;2023-02-12T16:02:54;8.30;99.90
31783;DHT22;18351;47.560;9.708;2023-02-12T16:05:20;8.20;99.90
31783;DHT22;18351;47.560;9.708;2023-02-12T16:07:47;8.20;99.90
31783;DHT22;18351;47.560;9.708;2023-02-12T16:10:15;8.10;99.90
31783;DHT22;18351;47.560;9.708;2023-02-12T16:12:42;8.00;99.90
31783;DHT22;18351;47.560;9.708;2023-02-12T16:15:30;7.90;99.90
31783;DHT22;18351;47.560;9.708;2023-02-12T16:17:57;7.90;99.90
31783;DHT22;18351;47.560;9.708;2023-02-12T16:20:26;7.90;99.90
31783;DHT22;18351;47.560;9.708;2023-02-12T16:22:52;7.80;99.90
31783;DHT22;18351;47.560;9.708;2023-02-12T16:25:20;7.60;99.90
31783;DHT22;18351;47.560;9.708;2023-02-12T16:28:04;7.40;99.90
31783;DHT22;18351;47.560;9.708;2023-02-12T16:30:35;7.20;99.90
31783;DHT22;18351;47.560;9.708;2023-02-12T16:36:01;6.80;99.90
31783;DHT22;18351;47.560;9.708;2023-02-12T16:41:49;6.50;99.90
31783;DHT22;18351;47.560;9.708;2023-02-12T16:46:49;6.00;99.90
31783;DHT22;18351;47.560;9.708;2023-02-12T16:49:17;5.80;99.90
31783;DHT22;18351;47.560;9.708;2023-02-12T16:51:44;5.70;99.90
31783;DHT22;18351;47.560;9.708;2023-02-12T16:54:30;5.60;99.90
31783;DHT22;18351;47.560;9.708;2023-02-12T16:56:57;5.50;99.90
31783;DHT22;18351;47.560;9.708;2023-02-12T16:59:23;5.30;99.90
31783;DHT22;18351;47.560;9.708;2023-02-12T17:02:03;5.10;99.90
31783;DHT22;18351;47.560;9.708;2023-02-12T17:04:29;4.90;99.90
31783;DHT22;18351;47.560;9.708;2023-02-12T17:06:56;4.70;99.90
31783;DHT22;18351;47.560;9.708;2023-02-12T17:09:22;4.70;99.90
31783;DHT22;18351;47.560;9.708;2023-02-12T17:11:48;4.50;99.90
31783;DHT22;18351;47.560;9.708;2023-02-12T17:14:18;4.50;99.90
31783;DHT22;18351;47.560;9.708;2023-02-12T17:16:45;4.50;99.90
31783;DHT22;18351;47.560;9.708;2023-02-12T17:19:11;4.30;99.90
31783;DHT22;18351;47.560;9.708;2023-02-12T17:21:42;4.30;99.90
31783;DHT22;18351;47.560;9.708;2023-02-12T17:24:21;4.30;99.90
31783;DHT22;18351;47.560;9.708;2023-02-12T17:26:47;4.20;99.90
31783;DHT22;18351;47.560;9.708;2023-02-12T17:29:15;4.10;99.90
31783;DHT22;18351;47.560;9.708;2023-02-12T17:31:41;4.00;99.90
31783;DHT22;18351;47.560;9.708;2023-02-12T17:34:06;3.90;99.90
31783;DHT22;18351;47.560;9.708;2023-02-12T17:36:32;3.90;99.90
31783;DHT22;18351;47.560;9.708;2023-02-12T17:38:59;3.70;99.90
31783;DHT22;18351;47.560;9.708;2023-02-12T17:41:25;3.70;99.90
31783;DHT22;18351;47.560;9.708;2023-02-12T17:43:50;3.60;99.90
31783;DHT22;18351;47.560;9.708;2023-02-12T17:46:19;3.60;99.90
31783;DHT22;18351;47.560;9.708;2023-02-12T17:48:46;3.60;99.90
31783;DHT22;18351;47.560;9.708;2023-02-12T17:51:12;3.50;99.90
31783;DHT22;18351;47.560;9.708;2023-02-12T17:53:39;3.30;99.90
31783;DHT22;18351;47.560;9.708;2023-02-12T17:56:13;3.20;99.90
31783;DHT22;18351;47.560;9.708;2023-02-12T17:58:40;3.10;99.90
31783;DHT22;18351;47.560;9.708;2023-02-12T18:01:08;2.90;99.90
31783;DHT22;18351;47.560;9.708;2023-02-12T18:03:34;2.80;99.90
31783;DHT22;18351;47.560;9.708;2023-02-12T18:06:00;2.80;99.90
31783;DHT22;18351;47.560;9.708;2023-02-12T18:08:26;2.80;99.90
31783;DHT22;18351;47.560;9.708;2023-02-12T18:10:51;2.80;99.90
31783;DHT22;18351;47.560;9.708;2023-02-12T18:13:17;2.70;99.90
31783;DHT22;18351;47.560;9.708;2023-02-12T18:15:42;2.60;99.90
31783;DHT22;18351;47.560;9.708;2023-02-12T18:18:08;2.70;99.90
31783;DHT22;18351;47.560;9.708;2023-02-12T18:20:33;2.70;99.90
31783;DHT22;18351;47.560;9.708;2023-02-12T18:22:59;2.60;99.90
31783;DHT22;18351;47.560;9.708;2023-02-12T18:25:24;2.60;99.90
31783;DHT22;18351;47.560;9.708;2023-02-12T18:27:50;2.50;99.90
31783;DHT22;18351;47.560;9.708;2023-02-12T18:30:16;2.50;99.90